sensor_id;sensor_type;location;lat;lon;timestamp;P1;durP1;ratioP1;P2;durP2;ratioP2
28844;SDS011;15976;47.938;7.758;2024-03-29T00:01:33;3.40;;;0.70;;
28844;SDS011;15976;47.938;7.758;2024-03-29T00:03:59;1.10;;;0.73;;
28844;SDS011;15976;47.938;7.758;2024-03-29T00:06:25;1.90;;;0.70;;
28844;SDS011;15976;47.938;7.758;2024-03-29T00:08:52;0.93;;;0.60;;
28844;SDS011;15976;47.938;7.758;2024-03-29T00:11:18;2.92;;;0.70;;
28844;SDS011;15976;47.938;7.758;2024-03-29T00:13:44;1.58;;;0.73;;
28844;SDS011;15976;47.938;7.758;2024-03-29T00:16:10;1.80;;;0.70;;
28844;SDS011;15976;47.938;7.758;2024-03-29T00:18:37;0.60;;;0.50;;
28844;SDS011;15976;47.938;7.758;2024-03-29T00:21:03;1.20;;;0.70;;
28844;SDS011;15976;47.938;7.758;2024-03-29T00:23:29;2.03;;;0.50;;
28844;SDS011;15976;47.938;7.758;2024-03-29T00:25:55;2.63;;;0.60;;
28844;SDS011;15976;47.938;7.758;2024-03-29T00:28:23;2.05;;;0.70;;
28844;SDS011;15976;47.938;7.758;2024-03-29T00:30:49;0.70;;;0.63;;
28844;SDS011;15976;47.938;7.758;2024-03-29T00:33:15;2.58;;;0.73;;
28844;SDS011;15976;47.938;7.758;2024-03-29T00:35:42;0.50;;;0.50;;
28844;SDS011;15976;47.938;7.758;2024-03-29T00:38:07;3.28;;;0.80;;
28844;SDS011;15976;47.938;7.758;2024-03-29T00:40:35;2.53;;;0.55;;
28844;SDS011;15976;47.938;7.758;2024-03-29T00:43:01;2.33;;;0.88;;
28844;SDS011;15976;47.938;7.758;2024-03-29T00:45:27;1.95;;;0.70;;
28844;SDS011;15976;47.938;7.758;2024-03-29T00:47:54;2.13;;;0.88;;
28844;SDS011;15976;47.938;7.758;2024-03-29T00:50:20;1.63;;;0.80;;
28844;SDS011;15976;47.938;7.758;2024-03-29T00:52:47;1.98;;;0.60;;
28844;SDS011;15976;47.938;7.758;2024-03-29T00:55:14;1.55;;;0.60;;
28844;SDS011;15976;47.938;7.758;2024-03-29T00:57:40;1.75;;;0.70;;
28844;SDS011;15976;47.938;7.758;2024-03-29T01:00:06;1.38;;;0.60;;
28844;SDS011;15976;47.938;7.758;2024-03-29T01:02:32;1.70;;;0.80;;
28844;SDS011;15976;47.938;7.758;2024-03-29T01:04:58;2.10;;;0.50;;
28844;SDS011;15976;47.938;7.758;2024-03-29T01:07:24;0.80;;;0.80;;
28844;SDS011;15976;47.938;7.758;2024-03-29T01:09:51;0.93;;;0.80;;
28844;SDS011;15976;47.938;7.758;2024-03-29T01:12:17;1.92;;;0.70;;
28844;SDS011;15976;47.938;7.758;2024-03-29T01:14:44;1.20;;;0.85;;
28844;SDS011;15976;47.938;7.758;2024-03-29T01:17:10;1.50;;;0.70;;
28844;SDS011;15976;47.938;7.758;2024-03-29T01:19:36;0.98;;;0.60;;
28844;SDS011;15976;47.938;7.758;2024-03-29T01:22:03;1.27;;;0.70;;
28844;SDS011;15976;47.938;7.758;2024-03-29T01:24:30;1.75;;;0.70;;
28844;SDS011;15976;47.938;7.758;2024-03-29T01:26:56;0.88;;;0.73;;
28844;SDS011;15976;47.938;7.758;2024-03-29T01:29:22;1.80;;;0.82;;
28844;SDS011;15976;47.938;7.758;2024-03-29T01:31:48;1.35;;;0.63;;
28844;SDS011;15976;47.938;7.758;2024-03-29T01:34:14;1.65;;;0.63;;
28844;SDS011;15976;47.938;7.758;2024-03-29T01:36:42;1.13;;;0.70;;
28844;SDS011;15976;47.938;7.758;2024-03-29T01:39:08;0.65;;;0.60;;
28844;SDS011;15976;47.938;7.758;2024-03-29T01:41:36;1.20;;;0.63;;
28844;SDS011;15976;47.938;7.758;2024-03-29T01:44:02;1.13;;;0.50;;
28844;SDS011;15976;47.938;7.758;2024-03-29T01:46:28;1.67;;;0.60;;
28844;SDS011;15976;47.938;7.758;2024-03-29T01:48:54;0.50;;;0.50;;
28844;SDS011;15976;47.938;7.758;2024-03-29T01:51:21;0.65;;;0.60;;
28844;SDS011;15976;47.938;7.758;2024-03-29T01:53:47;0.60;;;0.60;;
28844;SDS011;15976;47.938;7.758;2024-03-29T01:56:19;1.40;;;0.68;;
28844;SDS011;15976;47.938;7.758;2024-03-29T01:58:51;0.50;;;0.50;;
28844;SDS011;15976;47.938;7.758;2024-03-29T02:01:19;0.88;;;0.70;;
28844;SDS011;15976;47.938;7.758;2024-03-29T02:03:46;0.98;;;0.57;;
28844;SDS011;15976;47.938;7.758;2024-03-29T02:06:13;1.25;;;0.50;;
28844;SDS011;15976;47.938;7.758;2024-03-29T02:08:39;2.33;;;0.80;;
28844;SDS011;15976;47.938;7.758;2024-03-29T02:11:05;1.05;;;0.75;;
28844;SDS011;15976;47.938;7.758;2024-03-29T02:13:32;1.10;;;0.70;;
28844;SDS011;15976;47.938;7.758;2024-03-29T02:15:58;1.73;;;0.65;;
28844;SDS011;15976;47.938;7.758;2024-03-29T02:18:24;1.70;;;1.02;;
28844;SDS011;15976;47.938;7.758;2024-03-29T02:20:50;1.17;;;0.80;;
28844;SDS011;15976;47.938;7.758;2024-03-29T02:23:18;1.92;;;0.75;;
28844;SDS011;15976;47.938;7.758;2024-03-29T02:25:49;2.13;;;0.80;;
28844;SDS011;15976;47.938;7.758;2024-03-29T02:28:16;2.22;;;0.90;;
28844;SDS011;15976;47.938;7.758;2024-03-29T02:30:42;1.05;;;0.80;;
28844;SDS011;15976;47.938;7.758;2024-03-29T02:33:07;2.15;;;0.93;;
28844;SDS011;15976;47.938;7.758;2024-03-29T02:35:33;0.98;;;0.60;;
28844;SDS011;15976;47.938;7.758;2024-03-29T02:38:00;2.38;;;0.80;;
28844;SDS011;15976;47.938;7.758;2024-03-29T02:40:26;0.88;;;0.70;;
28844;SDS011;15976;47.938;7.758;2024-03-29T02:42:52;0.85;;;0.60;;
28844;SDS011;15976;47.938;7.758;2024-03-29T02:45:18;0.68;;;0.45;;
28844;SDS011;15976;47.938;7.758;2024-03-29T02:47:44;2.35;;;0.88;;
28844;SDS011;15976;47.938;7.758;2024-03-29T02:50:12;2.20;;;1.00;;
28844;SDS011;15976;47.938;7.758;2024-03-29T02:52:39;1.25;;;0.90;;
28844;SDS011;15976;47.938;7.758;2024-03-29T02:55:05;2.00;;;0.98;;
28844;SDS011;15976;47.938;7.758;2024-03-29T02:57:33;1.45;;;1.20;;
28844;SDS011;15976;47.938;7.758;2024-03-29T02:59:58;3.97;;;1.20;;
28844;SDS011;15976;47.938;7.758;2024-03-29T03:02:25;2.60;;;1.17;;
28844;SDS011;15976;47.938;7.758;2024-03-29T03:04:50;3.20;;;1.17;;
28844;SDS011;15976;47.938;7.758;2024-03-29T03:07:16;2.33;;;1.45;;
28844;SDS011;15976;47.938;7.758;2024-03-29T03:10:01;2.67;;;1.63;;
28844;SDS011;15976;47.938;7.758;2024-03-29T03:12:46;2.13;;;1.30;;
28844;SDS011;15976;47.938;7.758;2024-03-29T03:15:12;2.75;;;1.58;;
28844;SDS011;15976;47.938;7.758;2024-03-29T03:17:38;3.00;;;1.77;;
28844;SDS011;15976;47.938;7.758;2024-03-29T03:20:04;3.35;;;2.17;;
28844;SDS011;15976;47.938;7.758;2024-03-29T03:22:32;2.53;;;1.60;;
28844;SDS011;15976;47.938;7.758;2024-03-29T03:24:58;3.90;;;1.60;;
28844;SDS011;15976;47.938;7.758;2024-03-29T03:27:24;4.88;;;1.70;;
28844;SDS011;15976;47.938;7.758;2024-03-29T03:29:50;4.45;;;1.73;;
28844;SDS011;15976;47.938;7.758;2024-03-29T03:32:16;2.60;;;1.63;;
28844;SDS011;15976;47.938;7.758;2024-03-29T03:34:42;3.75;;;1.60;;
28844;SDS011;15976;47.938;7.758;2024-03-29T03:37:08;2.58;;;1.50;;
28844;SDS011;15976;47.938;7.758;2024-03-29T03:39:34;3.38;;;1.60;;
28844;SDS011;15976;47.938;7.758;2024-03-29T03:42:00;2.08;;;1.23;;
28844;SDS011;15976;47.938;7.758;2024-03-29T03:44:27;3.55;;;1.55;;
28844;SDS011;15976;47.938;7.758;2024-03-29T03:46:55;2.15;;;1.48;;
28844;SDS011;15976;47.938;7.758;2024-03-29T03:49:21;3.22;;;1.50;;
28844;SDS011;15976;47.938;7.758;2024-03-29T03:51:47;1.70;;;1.60;;
28844;SDS011;15976;47.938;7.758;2024-03-29T03:54:13;3.58;;;1.48;;
28844;SDS011;15976;47.938;7.758;2024-03-29T03:56:39;3.13;;;1.70;;
28844;SDS011;15976;47.938;7.758;2024-03-29T03:59:05;2.70;;;1.45;;
28844;SDS011;15976;47.938;7.758;2024-03-29T04:01:31;3.17;;;1.65;;
28844;SDS011;15976;47.938;7.758;2024-03-29T04:03:57;1.95;;;1.50;;
28844;SDS011;15976;47.938;7.758;2024-03-29T04:06:24;2.50;;;1.60;;
28844;SDS011;15976;47.938;7.758;2024-03-29T04:08:49;3.47;;;1.80;;
28844;SDS011;15976;47.938;7.758;2024-03-29T04:11:16;3.50;;;1.48;;
28844;SDS011;15976;47.938;7.758;2024-03-29T04:13:42;3.20;;;1.58;;
28844;SDS011;15976;47.938;7.758;2024-03-29T04:16:10;2.33;;;1.58;;
28844;SDS011;15976;47.938;7.758;2024-03-29T04:18:36;2.47;;;1.73;;
28844;SDS011;15976;47.938;7.758;2024-03-29T04:21:03;2.78;;;1.45;;
28844;SDS011;15976;47.938;7.758;2024-03-29T04:23:30;2.67;;;1.58;;
28844;SDS011;15976;47.938;7.758;2024-03-29T04:25:56;3.00;;;1.50;;
28844;SDS011;15976;47.938;7.758;2024-03-29T04:28:23;3.05;;;1.60;;
28844;SDS011;15976;47.938;7.758;2024-03-29T04:30:54;2.60;;;1.60;;
28844;SDS011;15976;47.938;7.758;2024-03-29T04:33:21;2.55;;;1.48;;
28844;SDS011;15976;47.938;7.758;2024-03-29T04:38:23;2.65;;;1.60;;
28844;SDS011;15976;47.938;7.758;2024-03-29T04:40:51;2.95;;;1.60;;
28844;SDS011;15976;47.938;7.758;2024-03-29T04:43:18;3.92;;;1.98;;
28844;SDS011;15976;47.938;7.758;2024-03-29T04:45:47;5.20;;;2.92;;
28844;SDS011;15976;47.938;7.758;2024-03-29T04:48:13;3.78;;;2.28;;
28844;SDS011;15976;47.938;7.758;2024-03-29T04:50:40;6.88;;;2.80;;
28844;SDS011;15976;47.938;7.758;2024-03-29T04:53:09;5.43;;;3.47;;
28844;SDS011;15976;47.938;7.758;2024-03-29T04:55:35;2.50;;;1.65;;
28844;SDS011;15976;47.938;7.758;2024-03-29T04:58:02;3.72;;;1.92;;
28844;SDS011;15976;47.938;7.758;2024-03-29T05:00:28;3.50;;;2.10;;
28844;SDS011;15976;47.938;7.758;2024-03-29T05:02:55;4.70;;;3.15;;
28844;SDS011;15976;47.938;7.758;2024-03-29T05:05:21;2.80;;;2.10;;
28844;SDS011;15976;47.938;7.758;2024-03-29T05:07:47;4.38;;;2.00;;
28844;SDS011;15976;47.938;7.758;2024-03-29T05:10:13;3.35;;;1.60;;
28844;SDS011;15976;47.938;7.758;2024-03-29T05:12:40;3.92;;;1.90;;
28844;SDS011;15976;47.938;7.758;2024-03-29T05:15:06;3.03;;;1.73;;
28844;SDS011;15976;47.938;7.758;2024-03-29T05:17:33;3.92;;;2.17;;
28844;SDS011;15976;47.938;7.758;2024-03-29T05:19:59;5.70;;;2.10;;
28844;SDS011;15976;47.938;7.758;2024-03-29T05:22:25;2.78;;;1.60;;
28844;SDS011;15976;47.938;7.758;2024-03-29T05:24:54;5.13;;;1.95;;
28844;SDS011;15976;47.938;7.758;2024-03-29T05:27:20;4.25;;;1.65;;
28844;SDS011;15976;47.938;7.758;2024-03-29T05:29:46;4.20;;;1.48;;
28844;SDS011;15976;47.938;7.758;2024-03-29T05:32:13;2.20;;;1.35;;
28844;SDS011;15976;47.938;7.758;2024-03-29T05:34:39;3.97;;;1.42;;
28844;SDS011;15976;47.938;7.758;2024-03-29T05:37:05;4.53;;;1.98;;
28844;SDS011;15976;47.938;7.758;2024-03-29T05:39:33;5.07;;;1.63;;
28844;SDS011;15976;47.938;7.758;2024-03-29T05:41:59;2.85;;;1.40;;
28844;SDS011;15976;47.938;7.758;2024-03-29T05:44:25;1.80;;;1.25;;
28844;SDS011;15976;47.938;7.758;2024-03-29T05:46:51;6.45;;;1.33;;
28844;SDS011;15976;47.938;7.758;2024-03-29T05:49:17;4.65;;;1.70;;
28844;SDS011;15976;47.938;7.758;2024-03-29T05:51:43;3.17;;;1.50;;
28844;SDS011;15976;47.938;7.758;2024-03-29T05:54:09;3.42;;;1.65;;
28844;SDS011;15976;47.938;7.758;2024-03-29T05:56:35;3.20;;;1.70;;
28844;SDS011;15976;47.938;7.758;2024-03-29T05:59:01;3.00;;;1.65;;
28844;SDS011;15976;47.938;7.758;2024-03-29T06:01:29;3.80;;;1.90;;
28844;SDS011;15976;47.938;7.758;2024-03-29T06:03:56;7.43;;;2.58;;
28844;SDS011;15976;47.938;7.758;2024-03-29T06:06:24;7.75;;;3.10;;
28844;SDS011;15976;47.938;7.758;2024-03-29T06:08:51;6.97;;;2.55;;
28844;SDS011;15976;47.938;7.758;2024-03-29T06:11:17;5.75;;;2.85;;
28844;SDS011;15976;47.938;7.758;2024-03-29T06:13:43;7.43;;;3.03;;
28844;SDS011;15976;47.938;7.758;2024-03-29T06:16:18;5.50;;;2.65;;
28844;SDS011;15976;47.938;7.758;2024-03-29T06:19:05;4.55;;;2.60;;
28844;SDS011;15976;47.938;7.758;2024-03-29T06:21:31;5.38;;;2.40;;
28844;SDS011;15976;47.938;7.758;2024-03-29T06:24:07;3.75;;;2.10;;
28844;SDS011;15976;47.938;7.758;2024-03-29T06:26:38;5.07;;;2.83;;
28844;SDS011;15976;47.938;7.758;2024-03-29T06:29:04;4.25;;;2.60;;
28844;SDS011;15976;47.938;7.758;2024-03-29T06:31:30;4.70;;;2.65;;
28844;SDS011;15976;47.938;7.758;2024-03-29T06:34:00;4.80;;;3.00;;
28844;SDS011;15976;47.938;7.758;2024-03-29T06:36:26;6.05;;;2.80;;
28844;SDS011;15976;47.938;7.758;2024-03-29T06:38:54;5.82;;;2.50;;
28844;SDS011;15976;47.938;7.758;2024-03-29T06:41:20;4.88;;;2.83;;
28844;SDS011;15976;47.938;7.758;2024-03-29T06:43:47;4.43;;;2.20;;
28844;SDS011;15976;47.938;7.758;2024-03-29T06:46:14;7.35;;;2.33;;
28844;SDS011;15976;47.938;7.758;2024-03-29T06:48:40;4.10;;;2.35;;
28844;SDS011;15976;47.938;7.758;2024-03-29T06:51:06;7.53;;;2.30;;
28844;SDS011;15976;47.938;7.758;2024-03-29T06:53:32;4.57;;;2.33;;
28844;SDS011;15976;47.938;7.758;2024-03-29T06:56:02;6.78;;;2.80;;
28844;SDS011;15976;47.938;7.758;2024-03-29T06:58:28;6.78;;;2.33;;
28844;SDS011;15976;47.938;7.758;2024-03-29T07:00:56;4.35;;;2.50;;
28844;SDS011;15976;47.938;7.758;2024-03-29T07:03:24;3.78;;;2.38;;
28844;SDS011;15976;47.938;7.758;2024-03-29T07:05:50;6.20;;;2.47;;
28844;SDS011;15976;47.938;7.758;2024-03-29T07:08:16;4.25;;;2.50;;
28844;SDS011;15976;47.938;7.758;2024-03-29T07:10:43;8.32;;;3.90;;
28844;SDS011;15976;47.938;7.758;2024-03-29T07:13:09;5.05;;;3.00;;
28844;SDS011;15976;47.938;7.758;2024-03-29T07:15:35;6.85;;;3.20;;
28844;SDS011;15976;47.938;7.758;2024-03-29T07:18:01;7.35;;;3.20;;
28844;SDS011;15976;47.938;7.758;2024-03-29T07:20:31;5.18;;;2.58;;
28844;SDS011;15976;47.938;7.758;2024-03-29T07:22:57;7.00;;;3.53;;
28844;SDS011;15976;47.938;7.758;2024-03-29T07:25:23;7.35;;;3.30;;
28844;SDS011;15976;47.938;7.758;2024-03-29T07:27:51;3.42;;;2.30;;
28844;SDS011;15976;47.938;7.758;2024-03-29T07:30:17;3.47;;;1.60;;
28844;SDS011;15976;47.938;7.758;2024-03-29T07:32:43;2.83;;;1.50;;
28844;SDS011;15976;47.938;7.758;2024-03-29T07:35:10;2.53;;;1.20;;
28844;SDS011;15976;47.938;7.758;2024-03-29T07:37:37;1.77;;;0.93;;
28844;SDS011;15976;47.938;7.758;2024-03-29T07:40:04;1.27;;;1.10;;
28844;SDS011;15976;47.938;7.758;2024-03-29T07:42:31;4.85;;;2.10;;
28844;SDS011;15976;47.938;7.758;2024-03-29T07:44:57;4.78;;;1.50;;
28844;SDS011;15976;47.938;7.758;2024-03-29T07:47:31;4.70;;;1.70;;
28844;SDS011;15976;47.938;7.758;2024-03-29T07:49:57;1.77;;;1.13;;
28844;SDS011;15976;47.938;7.758;2024-03-29T07:52:25;1.25;;;1.15;;
28844;SDS011;15976;47.938;7.758;2024-03-29T07:54:51;3.05;;;1.27;;
28844;SDS011;15976;47.938;7.758;2024-03-29T07:57:17;3.65;;;1.30;;
28844;SDS011;15976;47.938;7.758;2024-03-29T07:59:43;4.45;;;1.40;;
28844;SDS011;15976;47.938;7.758;2024-03-29T08:02:09;1.95;;;1.20;;
28844;SDS011;15976;47.938;7.758;2024-03-29T08:04:35;5.25;;;1.20;;
28844;SDS011;15976;47.938;7.758;2024-03-29T08:07:01;4.00;;;1.02;;
28844;SDS011;15976;47.938;7.758;2024-03-29T08:09:27;2.65;;;1.08;;
28844;SDS011;15976;47.938;7.758;2024-03-29T08:11:54;2.88;;;1.10;;
28844;SDS011;15976;47.938;7.758;2024-03-29T08:14:23;3.85;;;1.27;;
28844;SDS011;15976;47.938;7.758;2024-03-29T08:16:51;3.33;;;1.25;;
28844;SDS011;15976;47.938;7.758;2024-03-29T08:19:17;22.42;;;10.32;;
28844;SDS011;15976;47.938;7.758;2024-03-29T08:21:48;54.75;;;27.92;;
28844;SDS011;15976;47.938;7.758;2024-03-29T08:24:15;45.97;;;24.40;;
28844;SDS011;15976;47.938;7.758;2024-03-29T08:26:42;44.30;;;23.52;;
28844;SDS011;15976;47.938;7.758;2024-03-29T08:29:08;37.50;;;20.73;;
28844;SDS011;15976;47.938;7.758;2024-03-29T08:31:34;23.75;;;13.20;;
28844;SDS011;15976;47.938;7.758;2024-03-29T08:34:00;20.35;;;11.18;;
28844;SDS011;15976;47.938;7.758;2024-03-29T08:36:27;15.63;;;9.40;;
28844;SDS011;15976;47.938;7.758;2024-03-29T08:38:55;13.10;;;8.38;;
28844;SDS011;15976;47.938;7.758;2024-03-29T08:41:21;5.90;;;4.20;;
28844;SDS011;15976;47.938;7.758;2024-03-29T08:43:50;6.78;;;4.40;;
28844;SDS011;15976;47.938;7.758;2024-03-29T08:46:16;6.55;;;3.35;;
28844;SDS011;15976;47.938;7.758;2024-03-29T08:48:42;6.53;;;4.30;;
28844;SDS011;15976;47.938;7.758;2024-03-29T08:51:10;7.82;;;4.40;;
28844;SDS011;15976;47.938;7.758;2024-03-29T08:53:37;6.55;;;4.90;;
28844;SDS011;15976;47.938;7.758;2024-03-29T08:56:03;7.57;;;4.60;;
28844;SDS011;15976;47.938;7.758;2024-03-29T08:58:29;7.50;;;4.82;;
28844;SDS011;15976;47.938;7.758;2024-03-29T09:00:55;6.28;;;3.40;;
28844;SDS011;15976;47.938;7.758;2024-03-29T09:03:22;2.58;;;2.10;;
28844;SDS011;15976;47.938;7.758;2024-03-29T09:05:49;3.55;;;1.30;;
28844;SDS011;15976;47.938;7.758;2024-03-29T09:08:17;2.42;;;1.50;;
28844;SDS011;15976;47.938;7.758;2024-03-29T09:10:43;11.07;;;7.68;;
28844;SDS011;15976;47.938;7.758;2024-03-29T09:13:10;4.72;;;2.67;;
28844;SDS011;15976;47.938;7.758;2024-03-29T09:15:37;2.00;;;1.70;;
28844;SDS011;15976;47.938;7.758;2024-03-29T09:18:04;1.48;;;1.30;;
28844;SDS011;15976;47.938;7.758;2024-03-29T09:20:45;1.20;;;1.10;;
28844;SDS011;15976;47.938;7.758;2024-03-29T09:23:12;2.17;;;1.10;;
28844;SDS011;15976;47.938;7.758;2024-03-29T09:25:43;2.33;;;1.00;;
28844;SDS011;15976;47.938;7.758;2024-03-29T09:28:09;5.43;;;4.35;;
28844;SDS011;15976;47.938;7.758;2024-03-29T09:30:35;5.45;;;3.10;;
28844;SDS011;15976;47.938;7.758;2024-03-29T09:33:01;6.15;;;5.05;;
28844;SDS011;15976;47.938;7.758;2024-03-29T09:35:32;4.00;;;2.80;;
28844;SDS011;15976;47.938;7.758;2024-03-29T09:37:58;4.55;;;2.20;;
28844;SDS011;15976;47.938;7.758;2024-03-29T09:40:26;2.15;;;1.00;;
28844;SDS011;15976;47.938;7.758;2024-03-29T09:42:55;1.75;;;0.75;;
28844;SDS011;15976;47.938;7.758;2024-03-29T09:45:29;1.27;;;0.80;;
28844;SDS011;15976;47.938;7.758;2024-03-29T09:47:59;1.95;;;1.15;;
28844;SDS011;15976;47.938;7.758;2024-03-29T09:50:28;3.28;;;1.35;;
28844;SDS011;15976;47.938;7.758;2024-03-29T09:53:02;2.88;;;1.60;;
28844;SDS011;15976;47.938;7.758;2024-03-29T09:55:31;2.05;;;1.08;;
28844;SDS011;15976;47.938;7.758;2024-03-29T09:57:58;2.05;;;1.45;;
28844;SDS011;15976;47.938;7.758;2024-03-29T10:00:26;1.23;;;1.00;;
28844;SDS011;15976;47.938;7.758;2024-03-29T10:02:55;1.08;;;0.70;;
28844;SDS011;15976;47.938;7.758;2024-03-29T10:05:26;1.48;;;1.10;;
28844;SDS011;15976;47.938;7.758;2024-03-29T10:07:53;2.72;;;1.50;;
28844;SDS011;15976;47.938;7.758;2024-03-29T10:10:19;3.17;;;1.90;;
28844;SDS011;15976;47.938;7.758;2024-03-29T10:12:45;2.75;;;1.33;;
28844;SDS011;15976;47.938;7.758;2024-03-29T10:15:11;3.78;;;1.25;;
28844;SDS011;15976;47.938;7.758;2024-03-29T10:17:49;2.75;;;1.05;;
28844;SDS011;15976;47.938;7.758;2024-03-29T10:20:16;2.25;;;1.25;;
28844;SDS011;15976;47.938;7.758;2024-03-29T10:22:43;1.88;;;1.20;;
28844;SDS011;15976;47.938;7.758;2024-03-29T10:25:10;1.77;;;0.88;;
28844;SDS011;15976;47.938;7.758;2024-03-29T10:27:37;1.83;;;0.80;;
28844;SDS011;15976;47.938;7.758;2024-03-29T10:30:06;2.35;;;1.00;;
28844;SDS011;15976;47.938;7.758;2024-03-29T10:32:36;1.30;;;0.90;;
28844;SDS011;15976;47.938;7.758;2024-03-29T10:35:08;2.17;;;1.00;;
28844;SDS011;15976;47.938;7.758;2024-03-29T10:37:37;1.35;;;0.77;;
28844;SDS011;15976;47.938;7.758;2024-03-29T10:40:06;2.65;;;0.90;;
28844;SDS011;15976;47.938;7.758;2024-03-29T10:42:38;2.60;;;1.10;;
28844;SDS011;15976;47.938;7.758;2024-03-29T10:45:06;3.05;;;1.00;;
28844;SDS011;15976;47.938;7.758;2024-03-29T10:47:38;1.95;;;0.90;;
28844;SDS011;15976;47.938;7.758;2024-03-29T10:50:14;1.52;;;0.70;;
28844;SDS011;15976;47.938;7.758;2024-03-29T10:52:42;3.38;;;1.02;;
28844;SDS011;15976;47.938;7.758;2024-03-29T10:55:10;3.08;;;1.20;;
28844;SDS011;15976;47.938;7.758;2024-03-29T10:57:40;2.40;;;1.00;;
28844;SDS011;15976;47.938;7.758;2024-03-29T11:00:11;2.20;;;1.00;;
28844;SDS011;15976;47.938;7.758;2024-03-29T11:02:55;1.35;;;0.90;;
28844;SDS011;15976;47.938;7.758;2024-03-29T11:05:32;1.52;;;0.90;;
28844;SDS011;15976;47.938;7.758;2024-03-29T11:08:01;2.63;;;0.90;;
28844;SDS011;15976;47.938;7.758;2024-03-29T11:10:35;3.08;;;1.10;;
28844;SDS011;15976;47.938;7.758;2024-03-29T11:13:12;6.25;;;1.20;;
28844;SDS011;15976;47.938;7.758;2024-03-29T11:15:51;4.07;;;1.08;;
28844;SDS011;15976;47.938;7.758;2024-03-29T11:18:20;3.13;;;1.20;;
28844;SDS011;15976;47.938;7.758;2024-03-29T11:20:49;2.22;;;1.10;;
28844;SDS011;15976;47.938;7.758;2024-03-29T11:23:19;4.40;;;1.70;;
28844;SDS011;15976;47.938;7.758;2024-03-29T11:25:50;3.53;;;1.20;;
28844;SDS011;15976;47.938;7.758;2024-03-29T11:28:24;4.43;;;1.20;;
28844;SDS011;15976;47.938;7.758;2024-03-29T11:30:53;4.68;;;1.40;;
28844;SDS011;15976;47.938;7.758;2024-03-29T11:33:29;2.75;;;1.75;;
28844;SDS011;15976;47.938;7.758;2024-03-29T11:35:56;2.85;;;1.40;;
28844;SDS011;15976;47.938;7.758;2024-03-29T11:38:35;5.43;;;1.48;;
28844;SDS011;15976;47.938;7.758;2024-03-29T11:43:30;2.63;;;1.20;;
28844;SDS011;15976;47.938;7.758;2024-03-29T11:46:00;3.92;;;1.40;;
28844;SDS011;15976;47.938;7.758;2024-03-29T11:48:29;4.78;;;1.45;;
28844;SDS011;15976;47.938;7.758;2024-03-29T11:50:58;3.05;;;1.30;;
28844;SDS011;15976;47.938;7.758;2024-03-29T11:53:27;6.10;;;1.70;;
28844;SDS011;15976;47.938;7.758;2024-03-29T11:55:53;3.60;;;1.60;;
28844;SDS011;15976;47.938;7.758;2024-03-29T11:58:25;6.45;;;1.92;;
28844;SDS011;15976;47.938;7.758;2024-03-29T12:00:52;3.08;;;1.20;;
28844;SDS011;15976;47.938;7.758;2024-03-29T12:03:20;4.00;;;1.20;;
28844;SDS011;15976;47.938;7.758;2024-03-29T12:05:48;2.50;;;1.35;;
28844;SDS011;15976;47.938;7.758;2024-03-29T12:08:16;3.47;;;1.20;;
28844;SDS011;15976;47.938;7.758;2024-03-29T12:10:42;3.08;;;1.17;;
28844;SDS011;15976;47.938;7.758;2024-03-29T12:13:08;2.95;;;1.33;;
28844;SDS011;15976;47.938;7.758;2024-03-29T12:15:34;2.13;;;0.85;;
28844;SDS011;15976;47.938;7.758;2024-03-29T12:18:02;2.15;;;1.10;;
28844;SDS011;15976;47.938;7.758;2024-03-29T12:20:34;2.40;;;1.00;;
28844;SDS011;15976;47.938;7.758;2024-03-29T12:23:02;2.03;;;0.90;;
28844;SDS011;15976;47.938;7.758;2024-03-29T12:25:32;3.20;;;1.10;;
28844;SDS011;15976;47.938;7.758;2024-03-29T12:28:00;5.00;;;1.45;;
28844;SDS011;15976;47.938;7.758;2024-03-29T12:30:30;3.80;;;1.30;;
28844;SDS011;15976;47.938;7.758;2024-03-29T12:33:08;2.33;;;1.17;;
28844;SDS011;15976;47.938;7.758;2024-03-29T12:35:38;3.45;;;1.10;;
28844;SDS011;15976;47.938;7.758;2024-03-29T12:38:06;1.92;;;1.15;;
28844;SDS011;15976;47.938;7.758;2024-03-29T12:40:33;3.97;;;1.25;;
28844;SDS011;15976;47.938;7.758;2024-03-29T12:43:04;2.42;;;1.10;;
28844;SDS011;15976;47.938;7.758;2024-03-29T12:45:33;2.88;;;1.17;;
28844;SDS011;15976;47.938;7.758;2024-03-29T12:48:00;5.82;;;1.00;;
28844;SDS011;15976;47.938;7.758;2024-03-29T12:50:31;3.50;;;1.13;;
28844;SDS011;15976;47.938;7.758;2024-03-29T12:53:00;2.08;;;1.10;;
28844;SDS011;15976;47.938;7.758;2024-03-29T12:55:28;3.03;;;1.17;;
28844;SDS011;15976;47.938;7.758;2024-03-29T12:58:03;1.35;;;0.80;;
28844;SDS011;15976;47.938;7.758;2024-03-29T13:00:35;3.17;;;0.93;;
28844;SDS011;15976;47.938;7.758;2024-03-29T13:03:03;2.65;;;1.00;;
28844;SDS011;15976;47.938;7.758;2024-03-29T13:05:32;2.35;;;0.70;;
28844;SDS011;15976;47.938;7.758;2024-03-29T13:08:02;2.92;;;1.00;;
28844;SDS011;15976;47.938;7.758;2024-03-29T13:10:34;2.30;;;1.33;;
28844;SDS011;15976;47.938;7.758;2024-03-29T13:13:02;2.58;;;1.08;;
28844;SDS011;15976;47.938;7.758;2024-03-29T13:15:32;2.28;;;1.02;;
28844;SDS011;15976;47.938;7.758;2024-03-29T13:18:02;3.08;;;0.98;;
28844;SDS011;15976;47.938;7.758;2024-03-29T13:20:30;2.35;;;0.88;;
28844;SDS011;15976;47.938;7.758;2024-03-29T13:22:57;4.80;;;1.10;;
28844;SDS011;15976;47.938;7.758;2024-03-29T13:25:25;3.63;;;1.20;;
28844;SDS011;15976;47.938;7.758;2024-03-29T13:27:53;2.40;;;0.90;;
28844;SDS011;15976;47.938;7.758;2024-03-29T13:30:24;3.78;;;0.93;;
28844;SDS011;15976;47.938;7.758;2024-03-29T13:32:52;2.17;;;1.17;;
28844;SDS011;15976;47.938;7.758;2024-03-29T13:35:19;3.00;;;0.95;;
28844;SDS011;15976;47.938;7.758;2024-03-29T13:37:49;4.10;;;1.05;;
28844;SDS011;15976;47.938;7.758;2024-03-29T13:40:16;3.00;;;0.70;;
28844;SDS011;15976;47.938;7.758;2024-03-29T13:42:46;2.88;;;0.93;;
28844;SDS011;15976;47.938;7.758;2024-03-29T13:45:14;1.77;;;0.82;;
28844;SDS011;15976;47.938;7.758;2024-03-29T13:47:41;3.78;;;1.00;;
28844;SDS011;15976;47.938;7.758;2024-03-29T13:50:10;2.08;;;0.90;;
28844;SDS011;15976;47.938;7.758;2024-03-29T13:52:37;1.75;;;0.90;;
28844;SDS011;15976;47.938;7.758;2024-03-29T13:55:04;2.17;;;1.00;;
28844;SDS011;15976;47.938;7.758;2024-03-29T13:57:32;1.33;;;0.80;;
28844;SDS011;15976;47.938;7.758;2024-03-29T13:59:58;4.18;;;1.00;;
28844;SDS011;15976;47.938;7.758;2024-03-29T14:02:25;2.17;;;1.00;;
28844;SDS011;15976;47.938;7.758;2024-03-29T14:04:55;2.28;;;1.10;;
28844;SDS011;15976;47.938;7.758;2024-03-29T14:07:23;2.15;;;0.80;;
28844;SDS011;15976;47.938;7.758;2024-03-29T14:09:50;2.30;;;0.80;;
28844;SDS011;15976;47.938;7.758;2024-03-29T14:12:19;3.10;;;1.00;;
28844;SDS011;15976;47.938;7.758;2024-03-29T14:14:47;3.28;;;0.80;;
28844;SDS011;15976;47.938;7.758;2024-03-29T14:17:16;1.65;;;0.73;;
28844;SDS011;15976;47.938;7.758;2024-03-29T14:19:43;3.25;;;1.27;;
28844;SDS011;15976;47.938;7.758;2024-03-29T14:22:09;2.53;;;1.20;;
28844;SDS011;15976;47.938;7.758;2024-03-29T14:24:41;2.33;;;1.20;;
28844;SDS011;15976;47.938;7.758;2024-03-29T14:27:08;1.38;;;0.80;;
28844;SDS011;15976;47.938;7.758;2024-03-29T14:29:35;2.53;;;1.00;;
28844;SDS011;15976;47.938;7.758;2024-03-29T14:32:02;1.65;;;1.00;;
28844;SDS011;15976;47.938;7.758;2024-03-29T14:34:28;2.08;;;1.00;;
28844;SDS011;15976;47.938;7.758;2024-03-29T14:36:58;1.60;;;1.00;;
28844;SDS011;15976;47.938;7.758;2024-03-29T14:39:24;1.52;;;0.93;;
28844;SDS011;15976;47.938;7.758;2024-03-29T14:41:54;1.70;;;0.90;;
28844;SDS011;15976;47.938;7.758;2024-03-29T14:44:20;1.95;;;0.57;;
28844;SDS011;15976;47.938;7.758;2024-03-29T14:46:47;2.70;;;0.73;;
28844;SDS011;15976;47.938;7.758;2024-03-29T14:49:13;1.08;;;0.80;;
28844;SDS011;15976;47.938;7.758;2024-03-29T14:51:40;4.07;;;0.90;;
28844;SDS011;15976;47.938;7.758;2024-03-29T14:54:07;2.45;;;0.98;;
28844;SDS011;15976;47.938;7.758;2024-03-29T14:56:34;5.15;;;0.98;;